Time;durP1;ratioP1;P1;durP2;ratioP2;P2;SDS_P1;SDS_P2;PMS_P1;PMS_P2;Temp;Humidity;BMP_temperature;BMP_pressure;BME280_temperature;BME280_humidity;BME280_pressure;Samples;Min_cycle;Max_cycle;Signal;HPM_P1;HPM_P2
2022/05/20 00:01:09;;;;;;;18.42;11.80;;;;;;;-145.50;100.00;65435.88;4926000;28;20543;-67
2022/05/20 00:03:37;;;;;;;14.80;10.93;;;;;;;-145.50;100.00;65435.88;4924402;29;20531;-66
2022/05/20 00:06:04;;;;;;;13.55;10.13;;;;;;;-145.50;100.00;65435.88;4927153;29;20090;-67
2022/05/20 00:08:31;;;;;;;17.50;11.38;;;;;;;-145.50;100.00;65435.88;4914394;28;20142;-64
2022/05/20 00:10:58;;;;;;;15.18;11.20;;;;;;;-145.50;100.00;65435.88;4920423;29;20623;-67
2022/05/20 00:13:26;;;;;;;17.73;11.38;;;;;;;-145.50;100.00;65435.88;4918305;28;20044;-67
2022/05/20 00:15:56;;;;;;;16.85;11.20;;;;;;;-145.50;100.00;65435.88;4924811;29;20563;-66
2022/05/20 00:18:23;;;;;;;18.85;11.27;;;;;;;-145.50;100.00;65435.88;4918828;28;20059;-66
2022/05/20 00:20:49;;;;;;;17.45;11.52;;;;;;;-145.50;100.00;65435.88;4923569;29;20052;-65
2022/05/20 00:23:16;;;;;;;17.48;12.32;;;;;;;-145.50;100.00;65435.88;4920303;29;20179;-66
2022/05/20 00:25:45;;;;;;;15.48;11.82;;;;;;;-145.50;100.00;65435.88;4914811;28;20062;-65
2022/05/20 00:28:24;;;;;;;18.45;12.63;;;;;;;-145.50;100.00;65435.88;4923954;29;20071;-66
2022/05/20 00:30:53;;;;;;;14.85;10.13;;;;;;;-145.50;100.00;65435.88;4920235;28;20484;-66
2022/05/20 00:33:20;;;;;;;14.05;9.57;;;;;;;-145.50;100.00;65435.88;4934054;29;20504;-64
2022/05/20 00:35:47;;;;;;;13.93;9.48;;;;;;;-145.50;100.00;65435.88;4900285;29;20086;-63
2022/05/20 00:38:14;;;;;;;13.82;9.80;;;;;;;-145.50;100.00;65435.88;4917604;29;20139;-65
2022/05/20 00:40:42;;;;;;;15.75;9.57;;;;;;;-145.50;100.00;65435.88;4932056;29;20083;-66
2022/05/20 00:43:17;;;;;;;12.20;9.23;;;;;;;-145.50;100.00;65435.88;4920399;28;20126;-65
2022/05/20 00:45:44;;;;;;;13.77;9.75;;;;;;;-145.50;100.00;65435.88;4923782;29;20867;-66
2022/05/20 00:48:11;;;;;;;15.93;10.02;;;;;;;-145.50;100.00;65435.88;4929117;28;20059;-65
2022/05/20 00:50:41;;;;;;;17.73;10.80;;;;;;;-145.50;100.00;65435.88;4918170;29;20425;-66
2022/05/20 00:53:10;;;;;;;16.70;10.70;;;;;;;-145.50;100.00;65435.88;4918887;28;20059;-67
2022/05/20 00:55:36;;;;;;;;;;;;;;;-145.50;100.00;65435.88;4923479;29;20062;-64
2022/05/20 00:58:09;;;;;;;17.55;10.70;;;;;;;-145.50;100.00;65435.88;4923458;29;19927;-66
2022/05/20 01:00:41;;;;;;;14.50;10.88;;;;;;;-145.50;100.00;65435.88;4924105;29;20697;-65
2022/05/20 01:03:12;;;;;;;13.55;10.88;;;;;;;-145.50;100.00;65435.88;4912607;29;20070;-66
2022/05/20 01:05:43;;;;;;;17.33;11.45;;;;;;;-145.50;100.00;65435.88;4914098;28;20451;-67
2022/05/20 01:08:14;;;;;;;16.05;10.93;;;;;;;-145.50;100.00;65435.88;4916571;29;20082;-67
2022/05/20 01:10:41;;;;;;;15.45;10.75;;;;;;;-145.50;100.00;65435.88;4918265;28;20055;-66
2022/05/20 01:13:10;;;;;;;13.88;9.75;;;;;;;-145.50;100.00;65435.88;4923841;29;20051;-66
2022/05/20 01:15:36;;;;;;;;;;;;;;;-145.50;100.00;65435.88;4918702;28;20597;-65
2022/05/20 01:18:03;;;;;;;14.63;10.75;;;;;;;-145.50;100.00;65435.88;4918286;29;20017;-65
2022/05/20 01:20:32;;;;;;;14.88;11.13;;;;;;;-145.50;100.00;65435.88;4918897;29;20885;-66
2022/05/20 01:23:06;;;;;;;13.20;10.60;;;;;;;-145.50;100.00;65435.88;4917903;28;20170;-65
2022/05/20 01:25:32;;;;;;;16.20;11.05;;;;;;;-145.50;100.00;65435.88;4923066;29;20155;-66
2022/05/20 01:27:59;;;;;;;11.10;9.05;;;;;;;-145.50;100.00;65435.88;4917576;28;20048;-67
2022/05/20 01:30:27;;;;;;;15.77;9.48;;;;;;;-145.50;100.00;65435.88;4923936;29;20142;-66
2022/05/20 01:32:54;;;;;;;;;;;;;;;-145.50;100.00;65435.88;4913315;28;20142;-67
2022/05/20 01:35:41;;;;;;;13.82;10.32;;;;;;;-145.50;100.00;65435.88;4921865;29;20021;-67
2022/05/20 01:38:09;;;;;;;16.35;10.13;;;;;;;-145.50;100.00;65435.88;4927061;28;20747;-67
2022/05/20 01:41:02;;;;;;;12.90;10.23;;;;;;;-145.50;100.00;65435.88;4922867;29;20146;-67
2022/05/20 01:43:41;;;;;;;19.38;12.73;;;;;;;-145.50;100.00;65435.88;4922500;29;20107;-64
2022/05/20 01:46:24;;;;;;;15.55;11.10;;;;;;;-145.50;100.00;65435.88;4913973;28;20787;-66
2022/05/20 01:49:09;;;;;;;11.85;8.25;;;;;;;-145.50;100.00;65435.88;4921643;29;20056;-66
2022/05/20 01:52:06;;;;;;;11.65;8.60;;;;;;;-145.50;100.00;65435.88;4917700;28;20169;-65
2022/05/20 01:54:44;;;;;;;10.95;7.95;;;;;;;-145.50;100.00;65435.88;4925887;29;20052;-66
2022/05/20 01:57:19;;;;;;;12.18;8.27;;;;;;;-145.50;100.00;65435.88;4907822;29;20059;-67
2022/05/20 01:59:53;;;;;;;12.65;8.60;;;;;;;-145.50;100.00;65435.88;4916581;29;20083;-65
2022/05/20 02:02:30;;;;;;;11.95;8.70;;;;;;;-145.50;100.00;65435.88;4921751;28;20464;-66
2022/05/20 02:05:15;;;;;;;11.43;8.93;;;;;;;-145.50;100.00;65435.88;4926381;29;20754;-67
2022/05/20 02:07:47;;;;;;;11.90;9.55;;;;;;;-145.50;100.00;65435.88;4917224;28;20056;-65
2022/05/20 02:10:21;;;;;;;13.27;9.45;;;;;;;-145.50;100.00;65435.88;4926812;29;20163;-66
2022/05/20 02:12:53;;;;;;;14.95;9.65;;;;;;;-145.50;100.00;65435.88;4919883;28;20055;-65
2022/05/20 02:15:50;;;;;;;13.38;9.32;;;;;;;-145.50;100.00;65435.88;4926750;29;20055;-65
2022/05/20 02:18:21;;;;;;;13.23;9.07;;;;;;;-145.50;100.00;65435.88;4909813;28;20566;-64
2022/05/20 02:20:51;;;;;;;14.57;9.27;;;;;;;-145.50;100.00;65435.88;4915506;29;20058;-65
2022/05/20 02:23:31;;;;;;;12.45;8.98;;;;;;;-145.50;100.00;65435.88;4922875;29;20051;-67
2022/05/20 02:26:03;;;;;;;13.52;8.73;;;;;;;-145.50;100.00;65435.88;4924516;28;20060;-62
2022/05/20 02:28:34;;;;;;;11.73;8.05;;;;;;;-145.50;100.00;65435.88;4926341;29;20083;-65
2022/05/20 02:31:04;;;;;;;14.85;9.90;;;;;;;-145.50;100.00;65435.88;4921304;28;20154;-66
2022/05/20 02:33:31;;;;;;;12.75;9.32;;;;;;;-145.50;100.00;65435.88;4926090;29;20563;-66
2022/05/20 02:36:07;;;;;;;13.82;9.20;;;;;;;-145.50;100.00;65435.88;4918665;28;20058;-66
2022/05/20 02:38:35;;;;;;;11.90;8.45;;;;;;;-145.50;100.00;65435.88;4920537;29;21078;-64
2022/05/20 02:41:02;;;;;;;11.77;8.45;;;;;;;-145.50;100.00;65435.88;4926142;29;20647;-66
2022/05/20 02:43:29;;;;;;;13.50;9.32;;;;;;;-145.50;100.00;65435.88;4902452;29;20122;-65
2022/05/20 02:45:55;;;;;;;12.25;8.73;;;;;;;-145.50;100.00;65435.88;4931395;29;20055;-64
2022/05/20 02:48:22;;;;;;;13.88;9.77;;;;;;;-145.50;100.00;65435.88;4912756;28;20143;-66
2022/05/20 02:50:52;;;;;;;14.57;10.05;;;;;;;-145.50;100.00;65435.88;4925478;29;20087;-66
2022/05/20 02:53:19;;;;;;;13.63;9.88;;;;;;;-145.50;100.00;65435.88;4919231;28;20539;-66
2022/05/20 02:55:46;;;;;;;13.27;9.60;;;;;;;-145.50;100.00;65435.88;4938090;29;20055;-66
2022/05/20 03:04:09;;;;;;;12.98;9.63;;;;;;;-145.50;100.00;65435.88;4928522;29;20062;-65
2022/05/20 03:04:10;;;;;;;11.57;8.88;;;;;;;-145.50;100.00;65435.88;4938943;29;20055;-66
2022/05/20 03:06:42;;;;;;;14.27;8.85;;;;;;;-145.50;100.00;65435.88;4929247;29;20086;-66
2022/05/20 03:09:11;;;;;;;13.00;9.38;;;;;;;-145.50;100.00;65435.88;4927696;29;20060;-65
2022/05/20 03:11:39;;;;;;;13.50;9.40;;;;;;;-145.50;100.00;65435.88;4921614;28;20142;-68
2022/05/20 03:14:08;;;;;;;;;;;;;;;-145.50;100.00;65435.88;4928687;29;20064;-66
2022/05/20 03:16:35;;;;;;;;;;;;;;;-145.50;100.00;65435.88;4909512;29;19927;-66
2022/05/20 03:19:03;;;;;;;13.23;10.40;;;;;;;-145.50;100.00;65435.88;4927366;28;20566;-65
2022/05/20 03:21:29;;;;;;;13.43;10.70;;;;;;;-145.50;100.00;65435.88;4919857;28;20494;-66
2022/05/20 03:23:55;;;;;;;13.98;10.02;;;;;;;-145.50;100.00;65435.88;4927006;29;20061;-66
2022/05/20 03:26:22;;;;;;;15.18;10.32;;;;;;;-145.50;100.00;65435.88;4927548;29;20148;-66
2022/05/20 03:28:48;;;;;;;18.02;10.45;;;;;;;-145.50;100.00;65435.88;4921732;28;20401;-66
2022/05/20 03:31:15;;;;;;;15.75;10.88;;;;;;;-145.50;100.00;65435.88;4922874;29;20075;-65
2022/05/20 03:33:42;;;;;;;13.13;10.07;;;;;;;-145.50;100.00;65435.88;4919903;28;20123;-63
2022/05/20 03:36:08;;;;;;;12.23;9.73;;;;;;;-145.50;100.00;65435.88;4927817;29;20083;-66
2022/05/20 03:38:40;;;;;;;14.27;9.90;;;;;;;-145.50;100.00;65435.88;4921381;28;20404;-66
2022/05/20 03:41:06;;;;;;;11.18;8.88;;;;;;;-145.50;100.00;65435.88;4927549;29;20463;-67
2022/05/20 03:43:33;;;;;;;11.82;9.10;;;;;;;-145.50;100.00;65435.88;4922498;29;20094;-67
2022/05/20 03:45:59;;;;;;;14.05;10.85;;;;;;;-145.50;100.00;65435.88;4916407;28;21093;-65
2022/05/20 03:48:27;;;;;;;14.55;11.55;;;;;;;-145.50;100.00;65435.88;4926603;29;20051;-66
2022/05/20 03:50:54;;;;;;;15.63;10.68;;;;;;;-145.50;100.00;65435.88;4933001;28;20079;-66
2022/05/20 03:53:20;;;;;;;17.42;12.05;;;;;;;-145.50;100.00;65435.88;4928038;29;20171;-66
2022/05/20 03:55:47;;;;;;;16.02;11.55;;;;;;;-145.50;100.00;65435.88;4920093;28;20065;-67
2022/05/20 03:58:14;;;;;;;14.32;11.52;;;;;;;-145.50;100.00;65435.88;4922588;29;20058;-67
2022/05/20 04:03:25;;;;;;;17.70;12.63;;;;;;;-145.50;100.00;65435.88;4922454;29;20575;-67
2022/05/20 04:05:54;;;;;;;18.42;13.43;;;;;;;-145.50;100.00;65435.88;4931618;29;20551;-67
2022/05/20 04:08:20;;;;;;;19.15;13.70;;;;;;;-145.50;100.00;65435.88;4920066;28;20059;-66
2022/05/20 04:10:47;;;;;;;30.17;14.73;;;;;;;-145.50;100.00;65435.88;4934292;29;20059;-66
2022/05/20 04:13:13;;;;;;;34.70;14.63;;;;;;;-145.50;100.00;65435.88;4927700;28;20142;-66
2022/05/20 04:15:40;;;;;;;32.72;14.23;;;;;;;-145.50;100.00;65435.88;4933225;29;20091;-67
2022/05/20 04:18:07;;;;;;;60.30;14.57;;;;;;;-145.50;100.00;65435.88;4926859;29;20098;-66
2022/05/20 04:20:33;;;;;;;117.60;16.95;;;;;;;-145.50;100.00;65435.88;4919750;28;20564;-66
2022/05/20 04:23:00;;;;;;;46.33;13.52;;;;;;;-145.50;100.00;65435.88;4920555;29;20059;-66
2022/05/20 04:25:27;;;;;;;52.67;11.80;;;;;;;-145.50;100.00;65435.88;4920181;28;20126;-67
2022/05/20 04:27:53;;;;;;;70.57;13.73;;;;;;;-145.50;100.00;65435.88;4926389;29;20086;-66
2022/05/20 04:30:20;;;;;;;43.47;14.30;;;;;;;-145.50;100.00;65435.88;4920617;28;20487;-64
2022/05/20 04:32:46;;;;;;;49.80;13.55;;;;;;;-145.50;100.00;65435.88;4930141;29;20051;-66
2022/05/20 04:35:13;;;;;;;30.73;12.88;;;;;;;-145.50;100.00;65435.88;4927462;28;20090;-66
2022/05/20 04:37:39;;;;;;;59.58;14.10;;;;;;;-145.50;100.00;65435.88;4916516;28;20142;-64
2022/05/20 04:40:06;;;;;;;42.80;13.88;;;;;;;-145.50;100.00;65435.88;4909011;29;20151;-66
2022/05/20 04:48:06;;;;;;;21.25;12.73;;;;;;;-145.50;100.00;65435.88;4904840;29;20489;-66
2022/05/20 04:50:33;;;;;;;14.45;11.75;;;;;;;-145.50;100.00;65435.88;4904258;29;20146;-66
2022/05/20 04:53:04;;;;;;;14.77;11.23;;;;;;;-145.50;100.00;65435.88;4921483;28;20059;-67
2022/05/20 04:55:31;;;;;;;21.10;11.05;;;;;;;-145.50;100.00;65435.88;4925524;29;20741;-67
2022/05/20 04:57:59;;;;;;;14.38;12.13;;;;;;;-145.50;100.00;65435.88;4926011;29;20059;-66
2022/05/20 05:00:28;;;;;;;33.93;11.73;;;;;;;-145.50;100.00;65435.88;4921077;29;20927;-66
2022/05/20 05:02:56;;;;;;;23.90;12.15;;;;;;;-145.50;100.00;65435.88;4920692;29;20065;-65
2022/05/20 05:05:26;;;;;;;17.02;12.20;;;;;;;-145.50;100.00;65435.88;4929492;28;20106;-65
2022/05/20 05:07:54;;;;;;;31.83;12.38;;;;;;;-145.50;100.00;65435.88;4944942;29;20050;-66
2022/05/20 05:10:23;;;;;;;20.50;12.65;;;;;;;-145.50;100.00;65435.88;4939107;28;20147;-67
2022/05/20 05:12:50;;;;;;;27.10;13.52;;;;;;;-145.50;100.00;65435.88;4944645;29;20051;-66
2022/05/20 05:15:17;;;;;;;19.08;12.02;;;;;;;-145.50;100.00;65435.88;4903134;28;20055;-67
2022/05/20 05:20:32;;;;;;;18.40;13.05;;;;;;;-145.50;100.00;65435.88;4924493;29;20055;-66
2022/05/20 05:23:00;;;;;;;20.30;14.38;;;;;;;-145.50;100.00;65435.88;4919510;28;20524;-66
2022/05/20 05:25:30;;;;;;;21.83;13.32;;;;;;;-145.50;100.00;65435.88;4924047;29;20052;-67
2022/05/20 05:27:57;;;;;;;17.65;15.05;;;;;;;-145.50;100.00;65435.88;4915468;28;20698;-66
2022/05/20 05:30:23;;;;;;;20.27;15.05;;;;;;;-145.50;100.00;65435.88;4923053;29;20060;-65
2022/05/20 05:32:50;;;;;;;17.80;15.90;;;;;;;-145.50;100.00;65435.88;4918722;28;20419;-66
2022/05/20 05:35:20;;;;;;;22.20;19.15;;;;;;;-145.50;100.00;65435.88;4923723;29;20450;-67
2022/05/20 05:37:48;;;;;;;20.20;17.77;;;;;;;-145.50;100.00;65435.88;4921646;28;20058;-66
2022/05/20 05:40:18;;;;;;;20.65;17.70;;;;;;;-145.50;100.00;65435.88;4919639;29;20427;-66
2022/05/20 05:42:45;;;;;;;23.17;18.48;;;;;;;-145.50;100.00;65435.88;4920326;29;20146;-66
2022/05/20 05:45:14;;;;;;;24.33;19.15;;;;;;;-145.50;100.00;65435.88;4922424;28;20055;-66
2022/05/20 05:47:41;;;;;;;25.85;21.00;;;;;;;-145.50;100.00;65435.88;4929606;29;20583;-66
2022/05/20 05:50:08;;;;;;;23.88;20.75;;;;;;;-145.50;100.00;65435.88;4921391;28;20055;-66
2022/05/20 05:52:35;;;;;;;25.75;20.05;;;;;;;-145.50;100.00;65435.88;4929725;29;20062;-69
2022/05/20 05:55:03;;;;;;;23.92;19.60;;;;;;;-145.50;100.00;65435.88;4919753;28;20142;-64
2022/05/20 05:57:29;;;;;;;25.43;19.67;;;;;;;-145.50;100.00;65435.88;4923943;29;20055;-68
2022/05/20 05:59:57;;;;;;;28.05;21.15;;;;;;;-145.50;100.00;65435.88;4929168;29;20059;-66
2022/05/20 06:02:24;;;;;;;24.63;19.75;;;;;;;-145.50;100.00;65435.88;4922983;28;20051;-66
2022/05/20 06:04:51;;;;;;;25.52;20.23;;;;;;;-145.50;100.00;65435.88;4930600;29;20059;-69
2022/05/20 06:07:18;;;;;;;22.40;19.02;;;;;;;-145.50;100.00;65435.88;4942359;28;20061;-65
2022/05/20 06:09:45;;;;;;;22.73;17.13;;;;;;;-145.50;100.00;65435.88;4942116;28;20051;-66
2022/05/20 06:12:12;;;;;;;23.50;19.02;;;;;;;-145.50;100.00;65435.88;4943229;28;20055;-66
2022/05/20 06:14:39;;;;;;;25.05;19.10;;;;;;;-145.50;100.00;65435.88;4947765;28;20069;-65
2022/05/20 06:17:05;;;;;;;19.20;16.10;;;;;;;-145.50;100.00;65435.88;4931519;29;20055;-65
2022/05/20 06:19:32;;;;;;;22.02;15.60;;;;;;;-145.50;100.00;65435.88;4921099;28;20052;-67
2022/05/20 06:21:58;;;;;;;26.13;17.88;;;;;;;-145.50;100.00;65435.88;4922482;29;20131;-66
2022/05/20 06:24:24;;;;;;;18.48;14.25;;;;;;;-145.50;100.00;65435.88;4918059;28;20055;-67
2022/05/20 06:26:51;;;;;;;18.77;13.65;;;;;;;-145.50;100.00;65435.88;4928076;29;20067;-67
2022/05/20 06:29:18;;;;;;;25.75;16.23;;;;;;;-145.50;100.00;65435.88;4928016;29;20044;-67
2022/05/20 06:31:44;;;;;;;25.27;16.20;;;;;;;-145.50;100.00;65435.88;4923406;29;20150;-66
2022/05/20 06:34:11;;;;;;;24.98;16.67;;;;;;;-145.50;100.00;65435.88;4925797;29;20124;-67
2022/05/20 06:42:07;;;;;;;24.45;16.20;;;;;;;-145.50;100.00;65435.88;4921146;28;20848;-67
2022/05/20 06:44:34;;;;;;;23.85;15.45;;;;;;;-145.50;100.00;65435.88;4925707;29;20052;-66
2022/05/20 06:47:00;;;;;;;24.15;16.20;;;;;;;-145.50;100.00;65435.88;4922347;28;20146;-66
2022/05/20 06:49:27;;;;;;;20.30;15.90;;;;;;;-145.50;100.00;65435.88;4921994;29;20062;-66
2022/05/20 06:51:55;;;;;;;21.52;14.70;;;;;;;-145.50;100.00;65435.88;4924325;29;20062;-66
2022/05/20 06:54:22;;;;;;;21.60;15.60;;;;;;;-145.50;100.00;65435.88;4923044;28;20127;-66
2022/05/20 06:56:48;;;;;;;15.25;10.23;;;;;;;-145.50;100.00;65435.88;4928337;29;20052;-66
2022/05/20 06:59:14;;;;;;;15.45;10.63;;;;;;;-145.50;100.00;65435.88;4921962;28;20060;-67
2022/05/20 07:01:41;;;;;;;21.35;14.68;;;;;;;-145.50;100.00;65435.88;4928235;29;20051;-66
2022/05/20 07:04:31;;;;;;;18.58;13.00;;;;;;;-145.50;100.00;65435.88;4913265;28;20055;-66
2022/05/20 07:06:59;;;;;;;20.58;15.38;;;;;;;-145.50;100.00;65435.88;4927051;29;20055;-66
2022/05/20 07:09:25;;;;;;;22.58;15.05;;;;;;;-145.50;100.00;65435.88;4923381;28;20055;-66
2022/05/20 07:11:53;;;;;;;18.63;14.38;;;;;;;-145.50;100.00;65435.88;4927570;29;20063;-68
2022/05/20 07:14:19;;;;;;;24.93;14.63;;;;;;;-145.50;100.00;65435.88;4924352;29;20139;-67
2022/05/20 07:16:46;;;;;;;23.83;15.07;;;;;;;-145.50;100.00;65435.88;4906871;28;20992;-64
2022/05/20 07:19:12;;;;;;;20.35;13.15;;;;;;;-145.50;100.00;65435.88;4922336;29;20151;-66
2022/05/20 07:21:39;;;;;;;21.85;14.13;;;;;;;-145.50;100.00;65435.88;4921476;28;20086;-66
2022/05/20 07:24:06;;;;;;;20.70;14.70;;;;;;;-145.50;100.00;65435.88;4928262;29;20062;-67
2022/05/20 07:26:33;;;;;;;21.42;14.85;;;;;;;-145.50;100.00;65435.88;4923948;28;20055;-67
2022/05/20 07:29:01;;;;;;;25.23;14.93;;;;;;;-145.50;100.00;65435.88;4926972;29;20515;-66
2022/05/20 07:31:28;;;;;;;20.50;13.43;;;;;;;-145.50;100.00;65435.88;4920750;29;20552;-66
2022/05/20 07:33:54;;;;;;;19.95;14.10;;;;;;;-145.50;100.00;65435.88;4920885;28;20439;-67
2022/05/20 07:36:21;;;;;;;16.27;11.07;;;;;;;-145.50;100.00;65435.88;4927222;29;20059;-66
2022/05/20 07:38:48;;;;;;;21.88;13.90;;;;;;;-145.50;100.00;65435.88;4928153;28;20059;-67
2022/05/20 07:41:14;;;;;;;17.45;12.05;;;;;;;-145.50;100.00;65435.88;4932619;29;20797;-67
2022/05/20 07:43:41;;;;;;;19.10;11.93;;;;;;;-145.50;100.00;65435.88;4917327;28;20427;-67
2022/05/20 07:46:07;;;;;;;19.00;12.80;;;;;;;-145.50;100.00;65435.88;4926259;29;20106;-66
2022/05/20 07:48:34;;;;;;;15.60;10.75;;;;;;;-145.50;100.00;65435.88;4933363;29;20061;-67
2022/05/20 07:51:09;;;;;;;18.50;10.20;;;;;;;-145.50;100.00;65435.88;4920955;28;20060;-66
2022/05/20 07:53:40;;;;;;;16.50;11.48;;;;;;;-145.50;100.00;65435.88;4928615;29;20048;-67
2022/05/20 07:56:19;;;;;;;15.00;12.98;;;;;;;-145.50;100.00;65435.88;4921931;28;20143;-66
2022/05/20 07:59:02;;;;;;;15.88;12.23;;;;;;;-145.50;100.00;65435.88;4931399;29;20055;-66
2022/05/20 08:01:32;;;;;;;18.42;11.20;;;;;;;-145.50;100.00;65435.88;4905562;28;20701;-67
2022/05/20 08:06:51;;;;;;;17.77;13.07;;;;;;;-145.50;100.00;65435.88;4922111;28;20487;-67
2022/05/20 08:09:24;;;;;;;18.95;12.45;;;;;;;-145.50;100.00;65435.88;4927342;29;20055;-67
2022/05/20 08:11:50;;;;;;;17.95;11.93;;;;;;;-145.50;100.00;65435.88;4922451;29;20052;-67
2022/05/20 08:14:17;;;;;;;16.23;12.10;;;;;;;-145.50;100.00;65435.88;4916096;28;20059;-66
2022/05/20 08:16:43;;;;;;;13.70;10.38;;;;;;;-145.50;100.00;65435.88;4914825;29;20154;-68
2022/05/20 08:19:10;;;;;;;20.58;14.93;;;;;;;-145.50;100.00;65435.88;4902381;28;20052;-68
2022/05/20 08:21:37;;;;;;;19.52;14.40;;;;;;;-145.50;100.00;65435.88;4925387;29;20159;-66
2022/05/20 08:24:03;;;;;;;29.38;15.25;;;;;;;-145.50;100.00;65435.88;4904072;29;20166;-67
2022/05/20 08:26:30;;;;;;;22.50;14.57;;;;;;;-145.50;100.00;65435.88;4921801;29;20480;-66
2022/05/20 08:28:56;;;;;;;16.45;10.98;;;;;;;-145.50;100.00;65435.88;4922761;29;20048;-66
2022/05/20 08:31:23;;;;;;;18.83;13.02;;;;;;;-145.50;100.00;65435.88;4920798;28;20051;-67
2022/05/20 08:33:50;;;;;;;18.13;12.57;;;;;;;-145.50;100.00;65435.88;4926243;29;20143;-67
2022/05/20 08:36:19;;;;;;;14.90;12.30;;;;;;;-145.50;100.00;65435.88;4918905;29;20091;-66
2022/05/20 08:38:47;;;;;;;18.90;11.68;;;;;;;-145.50;100.00;65435.88;4925971;29;20142;-66
2022/05/20 08:41:25;;;;;;;18.50;10.93;;;;;;;-145.50;100.00;65435.88;4913931;28;20055;-67
2022/05/20 08:43:52;;;;;;;15.18;10.70;;;;;;;-145.50;100.00;65435.88;4925336;29;20055;-67
2022/05/20 08:46:22;;;;;;;15.23;8.77;;;;;;;-145.50;100.00;65435.88;4925127;29;20876;-67
2022/05/20 08:48:54;;;;;;;12.85;8.63;;;;;;;-145.50;100.00;65435.88;4919485;28;20051;-66
2022/05/20 08:51:23;;;;;;;13.15;8.48;;;;;;;-145.50;100.00;65435.88;4926039;29;20059;-67
2022/05/20 08:53:50;;;;;;;;;;;;;;;-145.50;100.00;65435.88;4928150;28;20145;-67
2022/05/20 08:56:22;;;;;;;17.40;9.10;;;;;;;-145.50;100.00;65435.88;4910749;29;20454;-67
2022/05/20 08:58:57;;;;;;;14.27;9.05;;;;;;;-145.50;100.00;65435.88;4919601;28;20138;-67
2022/05/20 09:01:28;;;;;;;18.77;9.18;;;;;;;-145.50;100.00;65435.88;4927169;29;20059;-67
2022/05/20 09:03:55;;;;;;;15.25;10.02;;;;;;;-145.50;100.00;65435.88;4919604;28;20094;-67
2022/05/20 09:06:23;;;;;;;14.35;9.45;;;;;;;-145.50;100.00;65435.88;4927466;29;20154;-67
2022/05/20 09:09:11;;;;;;;13.90;9.55;;;;;;;-145.50;100.00;65435.88;4921371;29;20055;-67
2022/05/20 09:11:40;;;;;;;10.70;7.75;;;;;;;-145.50;100.00;65435.88;4920064;28;20141;-65
2022/05/20 09:17:10;;;;;;;14.13;7.82;;;;;;;-145.50;100.00;65435.88;4903732;29;20146;-67
2022/05/20 09:19:39;;;;;;;13.02;8.23;;;;;;;-145.50;100.00;65435.88;4925037;29;20520;-67
2022/05/20 09:22:07;;;;;;;;;;;;;;;-145.50;100.00;65435.88;4915203;28;21003;-67
2022/05/20 09:24:42;;;;;;;10.93;6.65;;;;;;;-145.50;100.00;65435.88;4923396;29;20025;-67
2022/05/20 09:27:12;;;;;;;9.02;5.35;;;;;;;-145.50;100.00;65435.88;4919537;28;20171;-67
2022/05/20 09:29:55;;;;;;;12.35;7.78;;;;;;;-145.50;100.00;65435.88;4927117;29;20048;-68
2022/05/20 09:32:53;;;;;;;15.02;6.65;;;;;;;-145.50;100.00;65435.88;4920536;28;20162;-66
2022/05/20 09:35:23;;;;;;;13.43;9.07;;;;;;;-145.50;100.00;65435.88;4913561;29;20087;-68
2022/05/20 09:37:52;;;;;;;16.27;8.93;;;;;;;-145.50;100.00;65435.88;4900461;28;20064;-68
2022/05/20 09:40:33;;;;;;;16.42;9.20;;;;;;;-145.50;100.00;65435.88;4920361;29;20094;-67
2022/05/20 09:43:23;;;;;;;12.35;8.18;;;;;;;-145.50;100.00;65435.88;4943892;29;20058;-67
2022/05/20 09:45:50;;;;;;;14.05;8.30;;;;;;;-145.50;100.00;65435.88;4920621;28;20066;-66
2022/05/20 09:48:47;;;;;;;14.30;9.88;;;;;;;-145.50;100.00;65435.88;4940943;29;20051;-65
2022/05/20 09:51:32;;;;;;;12.75;8.88;;;;;;;-145.50;100.00;65435.88;4934593;28;20061;-67
2022/05/20 09:54:20;;;;;;;14.00;7.55;;;;;;;-145.50;100.00;65435.88;4932985;29;20485;-67
2022/05/20 09:56:58;;;;;;;;;;;;;;;-145.50;100.00;65435.88;4919222;29;20692;-66
2022/05/20 09:59:35;;;;;;;12.30;7.25;;;;;;;-145.50;100.00;65435.88;4925292;29;19931;-67
2022/05/20 10:02:09;;;;;;;13.90;7.25;;;;;;;-145.50;100.00;65435.88;4914899;29;20055;-67
2022/05/20 10:05:08;;;;;;;12.98;8.23;;;;;;;-145.50;100.00;65435.88;4920211;29;20051;-67
2022/05/20 10:08:00;;;;;;;16.08;7.93;;;;;;;-145.50;100.00;65435.88;4872066;29;20717;-67
2022/05/20 10:10:52;;;;;;;11.57;6.68;;;;;;;-145.50;100.00;65435.88;4923335;29;20054;-67
2022/05/20 10:13:21;;;;;;;15.02;7.50;;;;;;;-145.50;100.00;65435.88;4934517;28;20083;-66
2022/05/20 10:15:54;;;;;;;12.45;7.13;;;;;;;-145.50;100.00;65435.88;4920498;29;20147;-66
2022/05/20 10:18:52;;;;;;;12.48;6.93;;;;;;;-145.50;100.00;65435.88;4916620;28;20769;-66
2022/05/20 10:21:34;;;;;;;9.10;5.75;;;;;;;-145.50;100.00;65435.88;4923340;29;20047;-66
2022/05/20 10:24:41;;;;;;;10.48;5.78;;;;;;;-145.50;100.00;65435.88;4909366;28;20106;-66
2022/05/20 10:27:14;;;;;;;9.23;5.13;;;;;;;-145.50;100.00;65435.88;4883800;29;20474;-67
2022/05/20 10:33:02;;;;;;;9.90;5.82;;;;;;;-145.50;100.00;65435.88;4915167;29;20051;-67
2022/05/20 10:35:38;;;;;;;10.95;6.15;;;;;;;-145.50;100.00;65435.88;4902639;28;20056;-67
2022/05/20 10:38:37;;;;;;;9.55;6.13;;;;;;;-145.50;100.00;65435.88;4919060;29;20097;-65
2022/05/20 10:41:21;;;;;;;9.25;6.43;;;;;;;-145.50;100.00;65435.88;4907414;28;20066;-67
2022/05/20 10:50:25;;;;;;;10.98;6.90;;;;;;;-145.50;100.00;65435.88;4927036;29;20090;-68
2022/05/20 10:53:10;;;;;;;9.48;6.18;;;;;;;-145.50;100.00;65435.88;4925149;28;20460;-68
2022/05/20 10:55:59;;;;;;;8.27;5.32;;;;;;;-145.50;100.00;65435.88;4925337;29;20044;-67
2022/05/20 10:59:07;;;;;;;11.27;6.90;;;;;;;-145.50;100.00;65435.88;4916689;28;20048;-67
2022/05/20 11:02:20;;;;;;;10.77;6.47;;;;;;;-145.50;100.00;65435.88;4927729;29;20111;-67
2022/05/20 11:05:06;;;;;;;11.93;5.65;;;;;;;-145.50;100.00;65435.88;4921040;28;20106;-67
2022/05/20 11:07:44;;;;;;;9.50;5.75;;;;;;;-145.50;100.00;65435.88;4927290;29;20066;-65
2022/05/20 11:10:26;;;;;;;8.70;4.80;;;;;;;-145.50;100.00;65435.88;4922607;28;20634;-64
2022/05/20 11:13:06;;;;;;;9.10;4.28;;;;;;;-145.50;100.00;65435.88;4922673;29;20056;-66
2022/05/20 11:15:56;;;;;;;10.10;5.35;;;;;;;-145.50;100.00;65435.88;4927290;28;20194;-66
2022/05/20 11:18:37;;;;;;;9.60;5.13;;;;;;;-145.50;100.00;65435.88;4928186;29;20060;-67
2022/05/20 11:21:24;;;;;;;10.48;5.63;;;;;;;-145.50;100.00;65435.88;4929525;29;20170;-67
2022/05/20 11:23:58;;;;;;;10.48;5.55;;;;;;;-145.50;100.00;65435.88;4925517;29;20166;-67
2022/05/20 11:26:43;;;;;;;12.57;5.55;;;;;;;-145.50;100.00;65435.88;4922634;29;20094;-67
2022/05/20 11:29:24;;;;;;;9.85;6.95;;;;;;;-145.50;100.00;65435.88;4920802;28;20059;-67
2022/05/20 11:32:00;;;;;;;14.88;7.32;;;;;;;-145.50;100.00;65435.88;4928179;29;20138;-67
2022/05/20 11:34:52;;;;;;;12.30;7.28;;;;;;;-145.50;100.00;65435.88;4922138;28;20160;-67
2022/05/20 11:37:18;;;;;;;13.23;7.63;;;;;;;-145.50;100.00;65435.88;4922141;29;20197;-65
2022/05/20 11:40:07;;;;;;;12.30;8.05;;;;;;;-145.50;100.00;65435.88;4917675;28;20084;-66
2022/05/20 11:43:11;;;;;;;15.27;8.65;;;;;;;-145.50;100.00;65435.88;4923549;29;20289;-65
2022/05/20 11:45:51;;;;;;;12.80;9.35;;;;;;;-145.50;100.00;65435.88;4922337;29;20502;-67
2022/05/20 11:48:28;;;;;;;15.90;8.98;;;;;;;-145.50;100.00;65435.88;4940994;29;20055;-66
2022/05/20 11:51:29;;;;;;;12.10;9.38;;;;;;;-145.50;100.00;65435.88;4941956;28;20800;-64
2022/05/20 11:54:06;;;;;;;13.63;9.48;;;;;;;-145.50;100.00;65435.88;4934903;29;20150;-66
2022/05/20 11:56:57;;;;;;;15.13;10.02;;;;;;;-145.50;100.00;65435.88;4922007;29;20066;-65